Portada
METAR-TAF:

METAR-TAF

Aeroports :

Elista, Rússia

latitud: 46-22N, longitud: 044-20E, altitud: 150 m

Observació

L'informe es va fer fa 17 minuts, a les 05:30 UTC
Vent 21 kt del Est/Sud-Est
Temperatura 10°C
Humitat 43%
Pressió 1010 hPa
Visibilitat 10 km o més
sense núvols per sota de 1500 mi sense presència de cumulonimbus.

METAR: URWI 290530Z 11011MPS CAVOK 10/M02 Q1010 R09/010065 NOSIG

Hora: 09:47 (05:47 UTC)

Pronòstic

L'informe es va fer fa 47 minuts, a les 05:00 UTC
Pronòstic vàlid del 29 a les 06 UTC al 29 a les 15 UTC
Vent 19 kt del Est/Sud-Est amb ràfegues de 33 kt
Visibilitat 10 km o més
Núvols disperses a una alçada de 2000 ft
Temporalment
l' 29 a les 06 UTC al 29 a les 15 UTC
Vent 25 kt del Sud-Est amb ràfegues de 39 kt
Visibilitat: 6000 m
Núvols disperses a una alçada de 1600 ft

TAF: URWI 290500Z 2906/2915 11010G17MPS 9999 SCT020 TEMPO 2906/2915 13013G20MPS 6000 -DS SCT016

Observacions i pronòstics meteorològics de més de 4000 aeroports (METAR i TAF).

Les estacions disponibles són els punts grocs i vermells al mapa.

Posi el ratolí al punt desitjat per veure el nom de l'estació.

Feu clic per veure les observacions i els pronòstics meteorològics.

Per canviar el mapa: feu clic els botons verds amb una creu de color negre per apropar; al botó verd amb un guió per allunyar la imatge; o en les fletxes verdes per a mapes adjacents.


METAR-TAF: